createdAt,value
2023-05-17T05:00:51.300Z,928.00
2023-05-17T05:01:51.086Z,940.00
2023-05-17T05:02:51.162Z,948.00
2023-05-17T05:03:51.084Z,980.00
2023-05-17T05:04:51.084Z,976.00
2023-05-17T05:05:51.049Z,988.00
2023-05-17T05:06:51.041Z,1032.00
2023-05-17T05:07:51.047Z,1060.00
2023-05-17T05:08:51.007Z,1068.00
2023-05-17T05:09:51.000Z,1204.00
2023-05-17T05:10:51.096Z,1308.00
2023-05-17T05:11:55.998Z,1264.00
2023-05-17T05:12:50.957Z,1188.00
2023-05-17T05:13:50.949Z,1216.00
2023-05-17T05:14:50.934Z,1304.00
2023-05-17T05:15:50.944Z,1336.00
2023-05-17T05:16:51.094Z,1328.00
2023-05-17T05:17:50.985Z,1400.00
2023-05-17T05:18:51.086Z,1488.00
2023-05-17T05:19:50.918Z,1672.00
2023-05-17T05:20:50.873Z,1640.00
2023-05-17T05:21:50.895Z,1676.00
2023-05-17T05:22:55.863Z,1732.00
2023-05-17T05:23:50.831Z,1936.00
2023-05-17T05:24:50.822Z,1848.00
2023-05-17T05:25:50.832Z,2104.00
2023-05-17T05:26:50.805Z,2192.00
2023-05-17T05:27:50.844Z,2928.00
2023-05-17T05:28:50.803Z,1852.00
2023-05-17T05:29:50.764Z,2960.00
2023-05-17T05:30:50.764Z,2420.00
2023-05-17T05:31:50.744Z,1860.00
2023-05-17T05:32:51.063Z,2132.00
2023-05-17T05:33:55.929Z,2624.00
2023-05-17T05:34:50.724Z,1772.00
2023-05-17T05:35:50.708Z,1788.00
2023-05-17T05:36:50.686Z,1832.00
2023-05-17T05:37:50.674Z,1748.00
2023-05-17T05:38:50.667Z,1708.00
2023-05-17T05:39:50.701Z,1756.00
2023-05-17T05:40:50.641Z,1792.00
2023-05-17T05:41:50.637Z,1756.00
2023-05-17T05:42:50.647Z,1728.00
2023-05-17T05:43:50.609Z,1696.00
2023-05-17T05:44:55.630Z,1700.00
2023-05-17T05:45:50.627Z,1692.00
2023-05-17T05:46:50.571Z,1784.00
2023-05-17T05:47:50.604Z,1768.00
2023-05-17T05:48:50.681Z,1880.00
2023-05-17T05:49:50.564Z,1996.00
2023-05-17T05:50:50.536Z,2188.00
2023-05-17T05:51:50.536Z,2416.00
2023-05-17T05:52:50.506Z,2300.00
2023-05-17T05:53:50.507Z,1944.00
2023-05-17T05:54:50.485Z,1784.00
2023-05-17T05:55:55.496Z,1700.00
2023-05-17T05:56:50.462Z,1704.00
2023-05-17T05:57:50.468Z,1724.00
2023-05-17T05:58:50.451Z,1720.00
2023-05-17T05:59:50.428Z,1744.00
2023-05-17T06:00:50.423Z,1780.00
2023-05-17T06:01:50.403Z,1800.00
2023-05-17T06:02:50.431Z,1840.00
2023-05-17T06:03:50.426Z,1848.00
2023-05-17T06:04:50.482Z,1908.00
2023-05-17T06:05:50.560Z,1908.00
2023-05-17T06:06:55.409Z,2000.00
2023-05-17T06:07:50.346Z,2032.00
2023-05-17T06:08:50.335Z,2120.00
2023-05-17T06:09:50.338Z,2256.00
2023-05-17T06:10:50.307Z,2120.00
2023-05-17T06:11:50.292Z,2112.00
2023-05-17T06:12:50.290Z,2016.00
2023-05-17T06:13:50.279Z,2116.00
2023-05-17T06:14:50.261Z,2252.00
2023-05-17T06:15:50.270Z,2328.00
2023-05-17T06:16:50.237Z,2280.00
2023-05-17T06:17:55.364Z,2320.00
2023-05-17T06:18:51.398Z,2244.00
2023-05-17T06:19:50.306Z,2448.00
2023-05-17T06:20:50.294Z,2352.00
2023-05-17T06:21:50.232Z,2408.00
2023-05-17T06:22:50.176Z,2496.00
2023-05-17T06:23:50.162Z,2492.00
2023-05-17T06:24:50.146Z,3232.00
2023-05-17T06:25:50.134Z,3356.00
2023-05-17T06:26:50.134Z,3128.00
2023-05-17T06:27:50.151Z,3192.00
2023-05-17T06:28:55.124Z,4636.00
2023-05-17T06:29:50.090Z,4896.00
2023-05-17T06:30:50.079Z,5052.00
2023-05-17T06:31:50.077Z,5244.00
2023-05-17T06:32:50.129Z,4332.00
2023-05-17T06:33:50.167Z,4272.00
2023-05-17T06:34:50.029Z,5036.00
2023-05-17T06:35:57.238Z,4524.00
2023-05-17T06:36:51.196Z,5500.00
2023-05-17T06:37:50.017Z,5700.00
2023-05-17T06:38:49.982Z,4688.00
2023-05-17T06:40:00.034Z,4136.00
2023-05-17T06:40:49.965Z,3884.00
2023-05-17T06:41:49.968Z,4360.00
2023-05-17T06:42:49.937Z,4708.00
2023-05-17T06:43:49.925Z,4500.00
2023-05-17T06:44:49.918Z,4280.00
2023-05-17T06:45:49.979Z,3720.00
2023-05-17T06:46:49.901Z,3256.00
2023-05-17T06:47:49.973Z,3352.00
2023-05-17T06:48:51.099Z,4248.00
2023-05-17T06:49:49.873Z,4216.00
2023-05-17T06:50:54.881Z,4796.00
2023-05-17T06:51:49.848Z,5312.00
2023-05-17T06:52:49.913Z,3892.00
2023-05-17T06:53:49.808Z,3764.00
2023-05-17T06:54:49.797Z,2988.00
2023-05-17T06:55:49.800Z,2780.00
2023-05-17T06:56:49.791Z,2828.00
2023-05-17T06:57:49.780Z,2884.00
2023-05-17T06:58:49.753Z,2736.00
2023-05-17T06:59:49.749Z,2744.00
2023-05-17T07:00:49.761Z,3000.00
2023-05-17T07:01:54.744Z,3252.00
2023-05-17T07:02:49.780Z,2732.00
2023-05-17T07:03:49.876Z,2684.00
2023-05-17T07:04:49.787Z,2836.00
2023-05-17T07:05:49.673Z,3648.00
2023-05-17T07:06:49.677Z,2784.00
2023-05-17T07:07:49.653Z,2708.00
2023-05-17T07:08:49.825Z,3072.00
2023-05-17T07:09:49.658Z,3392.00
2023-05-17T07:10:49.618Z,3244.00
2023-05-17T07:11:49.616Z,2208.00
2023-05-17T07:12:54.627Z,2956.00
2023-05-17T07:13:50.673Z,2920.00
2023-05-17T07:14:49.588Z,2708.00
2023-05-17T07:15:49.594Z,2916.00
2023-05-17T07:16:49.563Z,2824.00
2023-05-17T07:17:49.585Z,2376.00
2023-05-17T07:18:49.612Z,2832.00
2023-05-17T07:19:49.713Z,3028.00
2023-05-17T07:20:49.508Z,2584.00
2023-05-17T07:21:49.539Z,2472.00
2023-05-17T07:22:49.489Z,3064.00
2023-05-17T07:23:54.613Z,2748.00
2023-05-17T07:24:49.482Z,3800.00
2023-05-17T07:25:49.466Z,4812.00
2023-05-17T07:26:50.863Z,4208.00
2023-05-17T07:27:49.459Z,3572.00
2023-05-17T07:28:49.589Z,3452.00
2023-05-17T07:29:49.425Z,4240.00
2023-05-17T07:30:49.399Z,3880.00
2023-05-17T07:31:49.388Z,3832.00
2023-05-17T07:32:49.459Z,3320.00
2023-05-17T07:33:49.437Z,3212.00
2023-05-17T07:34:54.376Z,3228.00
2023-05-17T07:35:49.421Z,2772.00
2023-05-17T07:36:49.329Z,2280.00
2023-05-17T07:37:49.350Z,2276.00
2023-05-17T07:38:49.312Z,2488.00
2023-05-17T07:39:49.673Z,2812.00
2023-05-17T07:40:49.294Z,2804.00
2023-05-17T07:41:49.286Z,3192.00
2023-05-17T07:42:49.271Z,3900.00
2023-05-17T07:43:49.250Z,4276.00
2023-05-17T07:44:49.245Z,4444.00
2023-05-17T07:45:54.256Z,4528.00
2023-05-17T07:46:49.274Z,4424.00
2023-05-17T07:47:49.346Z,5300.00
2023-05-17T07:48:49.389Z,6664.00
2023-05-17T07:49:49.181Z,5436.00
2023-05-17T07:50:49.175Z,4868.00
2023-05-17T07:51:49.169Z,5752.00
2023-05-17T07:52:49.168Z,5716.00
2023-05-17T07:53:49.142Z,6176.00
2023-05-17T07:54:49.155Z,6132.00
2023-05-17T07:55:49.145Z,5672.00
2023-05-17T07:56:54.138Z,6464.00
2023-05-17T07:57:49.096Z,6140.00
2023-05-17T07:58:49.109Z,6300.00
2023-05-17T07:59:49.071Z,5752.00
2023-05-17T08:00:49.071Z,6204.00
2023-05-17T08:01:49.055Z,7136.00
2023-05-17T08:02:49.084Z,8016.00
2023-05-17T08:03:49.030Z,7400.00
2023-05-17T08:04:49.061Z,5436.00
2023-05-17T08:05:49.094Z,4492.00
2023-05-17T08:06:49.008Z,3416.00
2023-05-17T08:07:54.001Z,2816.00
2023-05-17T08:08:48.980Z,2444.00
2023-05-17T08:09:48.957Z,2752.00
2023-05-17T08:10:48.976Z,3232.00
2023-05-17T08:11:48.975Z,3748.00
2023-05-17T08:12:48.930Z,3656.00
2023-05-17T08:13:48.920Z,3568.00
2023-05-17T08:14:48.903Z,4448.00
2023-05-17T08:15:51.539Z,5552.00
2023-05-17T08:16:48.897Z,5176.00
2023-05-17T08:17:48.986Z,3652.00
2023-05-17T08:18:54.039Z,2948.00
2023-05-17T08:19:48.877Z,2640.00
2023-05-17T08:20:48.846Z,2844.00
2023-05-17T08:21:48.824Z,2836.00
2023-05-17T08:22:48.827Z,2684.00
2023-05-17T08:23:48.798Z,2632.00
2023-05-17T08:24:48.790Z,2724.00
2023-05-17T08:25:48.805Z,2808.00
2023-05-17T08:26:48.770Z,2452.00
2023-05-17T08:27:48.810Z,2064.00
2023-05-17T08:28:48.752Z,1924.00
2023-05-17T08:29:53.787Z,2092.00
2023-05-17T08:30:49.764Z,2556.00
2023-05-17T08:31:48.714Z,3044.00
2023-05-17T08:32:48.819Z,3384.00
2023-05-17T08:33:48.703Z,3816.00
2023-05-17T08:34:48.691Z,4304.00
2023-05-17T08:35:48.680Z,4732.00
2023-05-17T08:36:48.719Z,5704.00
2023-05-17T08:37:48.643Z,6500.00
2023-05-17T08:38:48.634Z,2376.00
2023-05-17T08:39:48.670Z,2000.00
2023-05-17T08:40:53.639Z,1860.00
2023-05-17T08:41:48.594Z,1836.00
2023-05-17T08:42:48.612Z,2068.00
2023-05-17T08:43:48.635Z,2376.00
2023-05-17T08:44:48.579Z,2968.00
2023-05-17T08:45:48.557Z,3772.00
2023-05-17T08:46:48.559Z,5100.00
2023-05-17T08:47:48.596Z,5792.00
2023-05-17T08:48:48.577Z,6664.00
2023-05-17T08:49:48.526Z,7476.00
2023-05-17T08:50:48.497Z,8228.00
2023-05-17T08:51:53.513Z,7916.00
2023-05-17T08:52:48.493Z,7928.00
2023-05-17T08:53:48.469Z,8388.00
2023-05-17T08:54:48.492Z,8452.00
2023-05-17T08:55:48.438Z,8276.00
2023-05-17T08:56:48.430Z,7680.00
2023-05-17T08:57:48.419Z,7416.00
2023-05-17T08:59:48.424Z,7224.00
2023-05-17T09:00:48.403Z,8336.00
2023-05-17T09:01:48.376Z,7824.00
2023-05-17T09:02:53.430Z,9276.00
2023-05-17T09:03:48.495Z,9116.00
2023-05-17T09:04:48.440Z,9724.00
2023-05-17T09:05:48.381Z,11376.00
2023-05-17T09:06:48.321Z,10456.00
2023-05-17T09:07:48.311Z,9688.00
2023-05-17T09:08:48.305Z,8348.00
2023-05-17T09:09:48.328Z,7436.00
2023-05-17T09:10:48.274Z,6748.00
2023-05-17T09:11:48.269Z,7840.00
2023-05-17T09:12:48.287Z,8740.00
2023-05-17T09:13:53.255Z,13468.00
2023-05-17T09:14:48.220Z,8992.00
2023-05-17T09:15:48.354Z,6420.00
2023-05-17T09:16:48.211Z,5720.00
2023-05-17T09:17:48.284Z,6444.00
2023-05-17T09:18:48.351Z,6788.00
2023-05-17T09:19:48.387Z,7712.00
2023-05-17T09:20:48.154Z,7128.00
2023-05-17T09:21:48.150Z,6348.00
2023-05-17T09:22:48.125Z,5352.00
2023-05-17T09:23:57.703Z,4684.00
2023-05-17T09:24:53.169Z,4048.00
2023-05-17T09:25:48.123Z,3856.00
2023-05-17T09:26:48.092Z,4236.00
2023-05-17T09:27:48.078Z,5020.00
2023-05-17T09:28:48.062Z,5248.00
2023-05-17T09:29:48.051Z,5820.00
2023-05-17T09:30:48.078Z,6172.00
2023-05-17T09:31:48.065Z,6160.00
2023-05-17T09:33:48.105Z,6452.00
2023-05-17T09:34:47.992Z,6688.00
2023-05-17T09:35:53.014Z,10592.00
2023-05-17T09:36:47.999Z,5372.00
2023-05-17T09:37:47.962Z,5488.00
2023-05-17T09:38:47.949Z,5352.00
2023-05-17T09:39:47.949Z,5192.00
2023-05-17T09:40:47.936Z,4704.00
2023-05-17T09:41:48.491Z,4224.00
2023-05-17T09:42:47.939Z,4056.00
2023-05-17T09:43:47.898Z,3912.00
2023-05-17T09:44:47.879Z,3908.00
2023-05-17T09:45:47.883Z,3724.00
2023-05-17T09:46:52.903Z,3448.00
2023-05-17T09:47:47.907Z,3300.00
2023-05-17T09:48:48.000Z,3536.00
2023-05-17T09:49:47.829Z,3272.00
2023-05-17T09:50:47.838Z,3304.00
2023-05-17T09:51:47.819Z,3336.00
2023-05-17T09:52:47.793Z,3704.00
2023-05-17T09:53:47.782Z,3996.00
2023-05-17T09:54:47.802Z,4336.00
2023-05-17T09:55:47.770Z,4468.00
2023-05-17T09:56:47.745Z,4636.00
2023-05-17T09:57:52.753Z,4928.00
2023-05-17T09:58:47.721Z,5452.00
2023-05-17T09:59:47.722Z,4904.00
2023-05-17T10:00:48.911Z,4680.00
2023-05-17T10:01:47.712Z,4292.00
2023-05-17T10:02:47.793Z,4512.00
2023-05-17T10:03:47.686Z,4584.00
2023-05-17T10:04:47.687Z,4696.00
2023-05-17T10:05:47.647Z,4968.00
2023-05-17T10:06:50.752Z,3920.00
2023-05-17T10:07:47.619Z,3688.00
2023-05-17T10:08:52.633Z,3596.00
2023-05-17T10:09:47.607Z,3588.00
2023-05-17T10:10:47.580Z,3844.00
2023-05-17T10:11:47.599Z,4236.00
2023-05-17T10:12:47.590Z,4628.00
2023-05-17T10:13:47.564Z,4800.00
2023-05-17T10:14:47.624Z,4984.00
2023-05-17T10:15:47.539Z,5360.00
2023-05-17T10:16:47.515Z,5860.00
2023-05-17T10:17:47.556Z,6028.00
2023-05-17T10:18:47.583Z,5952.00
2023-05-17T10:19:52.760Z,6376.00
2023-05-17T10:20:47.468Z,6272.00
2023-05-17T10:21:47.456Z,6388.00
2023-05-17T10:22:47.444Z,6480.00
2023-05-17T10:23:47.467Z,6048.00
2023-05-17T10:24:47.436Z,5972.00
2023-05-17T10:25:47.409Z,5944.00
2023-05-17T10:26:47.403Z,5712.00
2023-05-17T10:27:47.394Z,5496.00
2023-05-17T10:28:47.392Z,5292.00
2023-05-17T10:29:49.938Z,5200.00
2023-05-17T10:30:52.379Z,5184.00
2023-05-17T10:31:47.349Z,5028.00
2023-05-17T10:32:47.427Z,5016.00
2023-05-17T10:33:47.433Z,5496.00
2023-05-17T10:34:51.899Z,5700.00
2023-05-17T10:35:48.296Z,5832.00
2023-05-17T10:36:47.335Z,6020.00
2023-05-17T10:37:47.299Z,6592.00
2023-05-17T10:38:47.274Z,7212.00
2023-05-17T10:39:47.260Z,7956.00
2023-05-17T10:40:47.242Z,8712.00
2023-05-17T10:41:53.014Z,9100.00
2023-05-17T10:42:47.279Z,9448.00
2023-05-17T10:43:47.211Z,9732.00
2023-05-17T10:44:47.191Z,9712.00
2023-05-17T10:45:47.175Z,12704.00
2023-05-17T10:46:47.165Z,15008.00
2023-05-17T10:47:47.184Z,71200.00
2023-05-17T10:48:47.221Z,41600.00
2023-05-17T10:49:47.129Z,15104.00
2023-05-17T10:50:54.496Z,33056.00
2023-05-17T10:51:48.132Z,21120.00
2023-05-17T10:52:52.131Z,11004.00
2023-05-17T10:53:47.083Z,8052.00
2023-05-17T10:54:47.088Z,21056.00
2023-05-17T10:55:47.069Z,9568.00
2023-05-17T10:56:47.073Z,7524.00
2023-05-17T10:57:51.330Z,7848.00
2023-05-17T10:58:47.023Z,8656.00
2023-05-17T10:59:47.024Z,9272.00
2023-05-17T11:00:47.051Z,10508.00
2023-05-17T11:01:47.001Z,6140.00
2023-05-17T11:02:46.998Z,6180.00
2023-05-17T11:03:51.990Z,20768.00
2023-05-17T11:04:47.019Z,45632.00
2023-05-17T11:05:48.035Z,86656.00
2023-05-17T11:06:47.049Z,64672.00
2023-05-17T11:07:46.936Z,105696.00
2023-05-17T11:08:46.925Z,45216.00
2023-05-17T11:09:46.901Z,74752.00
2023-05-17T11:10:46.892Z,96352.00
2023-05-17T11:11:46.887Z,74560.00
2023-05-17T11:12:46.917Z,82592.00
2023-05-17T11:13:46.858Z,16864.00
2023-05-17T11:14:51.886Z,58528.00
2023-05-17T11:15:46.847Z,7912.00
2023-05-17T11:16:46.832Z,6536.00
2023-05-17T11:17:46.916Z,6200.00
2023-05-17T11:18:47.001Z,6664.00
2023-05-17T11:19:46.874Z,5944.00
2023-05-17T11:20:46.848Z,5824.00
2023-05-17T11:21:46.767Z,7192.00
2023-05-17T11:22:46.780Z,6624.00
2023-05-17T11:23:46.747Z,7124.00
2023-05-17T11:24:46.785Z,37472.00
2023-05-17T11:25:52.161Z,5764.00
2023-05-17T11:26:46.706Z,5308.00
2023-05-17T11:27:46.721Z,5704.00
2023-05-17T11:28:46.691Z,4740.00
2023-05-17T11:29:46.719Z,4336.00
2023-05-17T11:30:46.734Z,4584.00
2023-05-17T11:31:46.650Z,4316.00
2023-05-17T11:32:46.787Z,4496.00
2023-05-17T11:33:46.785Z,4432.00
2023-05-17T11:34:46.628Z,4504.00
2023-05-17T11:35:46.619Z,4876.00
2023-05-17T11:36:51.661Z,5476.00
2023-05-17T11:37:46.597Z,6712.00
2023-05-17T11:38:48.183Z,7616.00
2023-05-17T11:39:46.576Z,8716.00
2023-05-17T11:40:46.554Z,9660.00
2023-05-17T11:41:46.549Z,11732.00
2023-05-17T11:42:46.573Z,12300.00
2023-05-17T11:43:46.518Z,41888.00
2023-05-17T11:44:46.513Z,103264.00
2023-05-17T11:45:46.495Z,92832.00
2023-05-17T11:46:46.483Z,81344.00
2023-05-17T11:47:51.557Z,101472.00
2023-05-17T11:48:46.593Z,105408.00
2023-05-17T11:49:46.458Z,14992.00
2023-05-17T11:50:46.435Z,8612.00
2023-05-17T11:51:46.441Z,10612.00
2023-05-17T11:52:46.413Z,103712.00
2023-05-17T11:53:46.423Z,15064.00
2023-05-17T11:54:46.419Z,93920.00
2023-05-17T11:55:46.382Z,7032.00
2023-05-17T11:56:46.367Z,6884.00
2023-05-17T11:57:46.363Z,12800.00
2023-05-17T11:58:51.385Z,18368.00
2023-05-17T11:59:46.343Z,15160.00
2023-05-17T12:00:46.338Z,11060.00
2023-05-17T12:01:46.386Z,9204.00
2023-05-17T12:02:46.379Z,6336.00
2023-05-17T12:03:46.304Z,5804.00
2023-05-17T12:04:46.304Z,4848.00
2023-05-17T12:05:46.304Z,4724.00
2023-05-17T12:06:46.462Z,4696.00
2023-05-17T12:07:46.260Z,4932.00
2023-05-17T12:08:46.238Z,4916.00
2023-05-17T12:09:51.293Z,5068.00
2023-05-17T12:10:46.212Z,5784.00
2023-05-17T12:11:46.216Z,6136.00
2023-05-17T12:12:46.256Z,6028.00
2023-05-17T12:13:46.183Z,6068.00
2023-05-17T12:14:46.177Z,6280.00
2023-05-17T12:15:46.155Z,48928.00
2023-05-17T12:16:46.166Z,91104.00
2023-05-17T12:17:46.931Z,11124.00
2023-05-17T12:18:46.331Z,13204.00
2023-05-17T12:19:46.329Z,35456.00
2023-05-17T12:20:51.161Z,99872.00
2023-05-17T12:21:46.092Z,96064.00
2023-05-17T12:22:46.075Z,94144.00
2023-05-17T12:23:46.510Z,48192.00
2023-05-17T12:24:46.105Z,10008.00
2023-05-17T12:25:46.108Z,9136.00
2023-05-17T12:26:46.050Z,9588.00
2023-05-17T12:27:46.019Z,8324.00
2023-05-17T12:28:46.052Z,9992.00
2023-05-17T12:29:45.997Z,10228.00
2023-05-17T12:30:46.067Z,9808.00
2023-05-17T12:31:51.033Z,9076.00
2023-05-17T12:32:46.066Z,8280.00
2023-05-17T12:33:46.025Z,9852.00
2023-05-17T12:34:45.935Z,9564.00
2023-05-17T12:35:45.941Z,9804.00
2023-05-17T12:36:45.974Z,8504.00
2023-05-17T12:37:45.913Z,8792.00
2023-05-17T12:38:45.890Z,6788.00
2023-05-17T12:39:45.884Z,5656.00
2023-05-17T12:40:45.880Z,5000.00
2023-05-17T12:41:45.902Z,4984.00
2023-05-17T12:42:45.848Z,5452.00
2023-05-17T12:43:45.908Z,6312.00
2023-05-17T12:44:50.863Z,7616.00
2023-05-17T12:45:45.833Z,6764.00
2023-05-17T12:46:45.806Z,6824.00
2023-05-17T12:47:45.821Z,6836.00
2023-05-17T12:48:45.816Z,5628.00
2023-05-17T12:49:45.819Z,4792.00
2023-05-17T12:50:45.773Z,4296.00
2023-05-17T12:51:45.801Z,4472.00
2023-05-17T12:52:45.732Z,4800.00
2023-05-17T12:53:45.724Z,6228.00
2023-05-17T12:54:45.718Z,7492.00
2023-05-17T12:55:50.780Z,7868.00
2023-05-17T12:56:45.700Z,8108.00
2023-05-17T12:57:45.712Z,6944.00
2023-05-17T12:58:45.662Z,6640.00
2023-05-17T12:59:45.687Z,6288.00
2023-05-17T13:00:45.646Z,6084.00
2023-05-17T13:01:45.655Z,6164.00
2023-05-17T13:02:45.641Z,6184.00
2023-05-17T13:03:45.811Z,5804.00
2023-05-17T13:04:45.616Z,5580.00
2023-05-17T13:05:45.584Z,5540.00
2023-05-17T13:06:50.597Z,5648.00
2023-05-17T13:07:45.596Z,5040.00
2023-05-17T13:08:45.563Z,4856.00
2023-05-17T13:09:45.555Z,4628.00
2023-05-17T13:10:45.561Z,4512.00
2023-05-17T13:11:45.523Z,4796.00
2023-05-17T13:12:45.511Z,4744.00
2023-05-17T13:13:45.539Z,4408.00
2023-05-17T13:14:47.027Z,3628.00
2023-05-17T13:15:45.490Z,3556.00
2023-05-17T13:16:45.485Z,3756.00
2023-05-17T13:17:50.541Z,3772.00
2023-05-17T13:18:45.585Z,3772.00
2023-05-17T13:19:45.546Z,3860.00
2023-05-17T13:20:45.417Z,4504.00
2023-05-17T13:21:45.414Z,4892.00
2023-05-17T13:22:45.405Z,4964.00
2023-05-17T13:23:45.398Z,4876.00
2023-05-17T13:24:45.411Z,4824.00
2023-05-17T13:25:45.375Z,4352.00
2023-05-17T13:26:45.358Z,4148.00
2023-05-17T13:27:45.359Z,4016.00
2023-05-17T13:28:50.455Z,3888.00
2023-05-17T13:29:45.336Z,3900.00
2023-05-17T13:30:45.305Z,4012.00
2023-05-17T13:31:45.318Z,3864.00
2023-05-17T13:32:45.421Z,3824.00
2023-05-17T13:33:45.448Z,4360.00
2023-05-17T13:34:45.260Z,4788.00
2023-05-17T13:35:45.250Z,5312.00
2023-05-17T13:36:45.333Z,4860.00
2023-05-17T13:37:45.238Z,4816.00
2023-05-17T13:38:45.217Z,4624.00
2023-05-17T13:39:50.230Z,4392.00
2023-05-17T13:40:45.193Z,4196.00
2023-05-17T13:41:45.193Z,4052.00
2023-05-17T13:42:45.217Z,3944.00
2023-05-17T13:43:45.159Z,4104.00
2023-05-17T13:44:45.286Z,4916.00
2023-05-17T13:45:45.137Z,4116.00
2023-05-17T13:46:45.138Z,4264.00
2023-05-17T13:47:45.173Z,4972.00
2023-05-17T13:48:45.201Z,5528.00
2023-05-17T13:49:45.114Z,5512.00
2023-05-17T13:50:50.125Z,5692.00
2023-05-17T13:51:45.123Z,4852.00
2023-05-17T13:52:45.062Z,5268.00
2023-05-17T13:53:45.053Z,4708.00
2023-05-17T13:54:45.110Z,4156.00
2023-05-17T13:55:45.083Z,4096.00
2023-05-17T13:56:45.037Z,4036.00
2023-05-17T13:57:44.995Z,4316.00
2023-05-17T13:58:45.003Z,3908.00
2023-05-17T13:59:45.911Z,3816.00
2023-05-17T14:00:45.034Z,4012.00
2023-05-17T14:01:50.026Z,3404.00
2023-05-17T14:02:44.971Z,3668.00
2023-05-17T14:03:45.023Z,3572.00
2023-05-17T14:04:44.931Z,3848.00
2023-05-17T14:05:44.939Z,3620.00
2023-05-17T14:06:47.175Z,3204.00
2023-05-17T14:07:44.900Z,3440.00
2023-05-17T14:08:44.880Z,3332.00
2023-05-17T14:09:44.891Z,3236.00
2023-05-17T14:10:44.864Z,3860.00
2023-05-17T14:11:44.842Z,4136.00
2023-05-17T14:12:49.867Z,4312.00
2023-05-17T14:13:44.816Z,4444.00
2023-05-17T14:14:44.819Z,4596.00
2023-05-17T14:15:44.813Z,4868.00
2023-05-17T14:16:44.836Z,4920.00
2023-05-17T14:17:44.958Z,5040.00
2023-05-17T14:18:44.921Z,5308.00
2023-05-17T14:19:44.916Z,4900.00
2023-05-17T14:20:44.749Z,4728.00
2023-05-17T14:21:44.725Z,4860.00
2023-05-17T14:22:44.713Z,4980.00
2023-05-17T14:23:49.729Z,4656.00
2023-05-17T14:24:44.749Z,4696.00
2023-05-17T14:25:44.698Z,5124.00
2023-05-17T14:26:44.671Z,4656.00
2023-05-17T14:27:44.661Z,4732.00
2023-05-17T14:28:44.652Z,4584.00
2023-05-17T14:29:44.665Z,4416.00
2023-05-17T14:30:44.665Z,4316.00
2023-05-17T14:31:44.610Z,4188.00
2023-05-17T14:32:44.677Z,4256.00
2023-05-17T14:33:44.677Z,4508.00
2023-05-17T14:34:49.610Z,4888.00
2023-05-17T14:35:44.572Z,5340.00
2023-05-17T14:36:44.606Z,5572.00
2023-05-17T14:37:44.548Z,5724.00
2023-05-17T14:38:44.547Z,5820.00
2023-05-17T14:39:58.493Z,5384.00
2023-05-17T14:40:44.520Z,5228.00
2023-05-17T14:41:45.144Z,5120.00
2023-05-17T14:42:44.525Z,4848.00
2023-05-17T14:43:44.491Z,4792.00
2023-05-17T14:44:44.465Z,4872.00
2023-05-17T14:45:49.483Z,4588.00
2023-05-17T14:46:44.460Z,4588.00
2023-05-17T14:47:44.475Z,4260.00
2023-05-17T14:48:44.543Z,4216.00
2023-05-17T14:49:44.407Z,4064.00
2023-05-17T14:50:44.406Z,3104.00
2023-05-17T14:51:44.383Z,3512.00
2023-05-17T14:52:44.386Z,3236.00
2023-05-17T14:53:44.374Z,3232.00
2023-05-17T14:54:44.353Z,3740.00
2023-05-17T14:55:44.371Z,3356.00
2023-05-17T14:56:49.356Z,2756.00
2023-05-17T14:57:44.322Z,3224.00
2023-05-17T14:58:44.304Z,2828.00
2023-05-17T14:59:45.198Z,2440.00
2023-05-17T15:00:44.280Z,2584.00
2023-05-17T15:01:44.307Z,2788.00
2023-05-17T15:02:44.313Z,2756.00
2023-05-17T15:03:44.384Z,3280.00
2023-05-17T15:04:44.335Z,3684.00
2023-05-17T15:05:44.230Z,3216.00
2023-05-17T15:06:44.225Z,3700.00
2023-05-17T15:07:49.274Z,3108.00
2023-05-17T15:08:44.189Z,2724.00
2023-05-17T15:09:44.196Z,2836.00
2023-05-17T15:10:44.171Z,2284.00
2023-05-17T15:11:44.168Z,2764.00
2023-05-17T15:12:44.147Z,2736.00
2023-05-17T15:13:44.181Z,2836.00
2023-05-17T15:14:44.124Z,3112.00
2023-05-17T15:15:44.117Z,3284.00
2023-05-17T15:16:44.157Z,3408.00
2023-05-17T15:17:44.130Z,3472.00
2023-05-17T15:18:49.230Z,3656.00
2023-05-17T15:19:44.325Z,3756.00
2023-05-17T15:20:44.083Z,2832.00
2023-05-17T15:21:44.049Z,2628.00
2023-05-17T15:22:44.045Z,2448.00
2023-05-17T15:23:44.020Z,2500.00
2023-05-17T15:24:44.015Z,2660.00
2023-05-17T15:25:44.019Z,2752.00
2023-05-17T15:26:43.989Z,2820.00
2023-05-17T15:27:43.983Z,2792.00
2023-05-17T15:28:43.971Z,2808.00
2023-05-17T15:29:48.980Z,3472.00
2023-05-17T15:30:43.958Z,3592.00
2023-05-17T15:31:44.046Z,3636.00
2023-05-17T15:32:43.942Z,3588.00
2023-05-17T15:33:43.925Z,3592.00
2023-05-17T15:34:43.913Z,3112.00
2023-05-17T15:35:43.913Z,2932.00
2023-05-17T15:36:43.906Z,3552.00
2023-05-17T15:37:43.908Z,2964.00
2023-05-17T15:38:43.853Z,2756.00
2023-05-17T15:39:43.852Z,3160.00
2023-05-17T15:40:48.856Z,2992.00
2023-05-17T15:41:43.819Z,2944.00
2023-05-17T15:42:43.810Z,3092.00
2023-05-17T15:43:43.837Z,2864.00
2023-05-17T15:44:43.793Z,2784.00
2023-05-17T15:45:43.771Z,2220.00
2023-05-17T15:46:43.766Z,1984.00
2023-05-17T15:47:44.070Z,2408.00
2023-05-17T15:48:43.849Z,2048.00
2023-05-17T15:49:43.768Z,1956.00
2023-05-17T15:50:43.718Z,1980.00
2023-05-17T15:51:48.766Z,2360.00
2023-05-17T15:52:43.705Z,2396.00
2023-05-17T15:53:43.695Z,2908.00
2023-05-17T15:54:43.686Z,2884.00
2023-05-17T15:55:43.686Z,2896.00
2023-05-17T15:56:43.649Z,3176.00
2023-05-17T15:57:43.635Z,2932.00
2023-05-17T15:58:43.636Z,2800.00
2023-05-17T15:59:43.612Z,2720.00
2023-05-17T16:00:43.602Z,2720.00
2023-05-17T16:01:43.623Z,2800.00
2023-05-17T16:02:48.637Z,2852.00
2023-05-17T16:03:43.620Z,2976.00
2023-05-17T16:04:43.558Z,3068.00
2023-05-17T16:05:43.581Z,2916.00
2023-05-17T16:06:43.624Z,2664.00
2023-05-17T16:07:43.578Z,2660.00
2023-05-17T16:08:43.527Z,2460.00
2023-05-17T16:09:43.501Z,2260.00
2023-05-17T16:10:43.501Z,2436.00
2023-05-17T16:11:43.474Z,2488.00
2023-05-17T16:12:43.474Z,2412.00
2023-05-17T16:13:48.496Z,2412.00
2023-05-17T16:14:43.442Z,2320.00
2023-05-17T16:15:43.430Z,2320.00
2023-05-17T16:16:45.082Z,2404.00
2023-05-17T16:17:43.508Z,2372.00
2023-05-17T16:18:43.517Z,2332.00
2023-05-17T16:19:43.439Z,2216.00
2023-05-17T16:20:43.385Z,2104.00
2023-05-17T16:21:43.369Z,1928.00
2023-05-17T16:22:43.363Z,1928.00
2023-05-17T16:23:43.414Z,1920.00
2023-05-17T16:24:48.372Z,1908.00
2023-05-17T16:25:43.330Z,1924.00
2023-05-17T16:26:43.326Z,1928.00
2023-05-17T16:27:43.340Z,1620.00
2023-05-17T16:28:43.289Z,1792.00
2023-05-17T16:29:43.277Z,1516.00
2023-05-17T16:30:43.339Z,1696.00
2023-05-17T16:31:43.261Z,1736.00
2023-05-17T16:32:43.267Z,1680.00
2023-05-17T16:33:43.273Z,1168.00
2023-05-17T16:34:43.223Z,1056.00
2023-05-17T16:35:48.256Z,1040.00
2023-05-17T16:36:43.204Z,1116.00
2023-05-17T16:37:43.181Z,1120.00
2023-05-17T16:38:43.173Z,1100.00
2023-05-17T16:39:43.189Z,1088.00
2023-05-17T16:40:43.163Z,1052.00
2023-05-17T16:41:43.187Z,1264.00
2023-05-17T16:42:43.125Z,1484.00
2023-05-17T16:43:43.112Z,1432.00
2023-05-17T16:44:43.103Z,1504.00
2023-05-17T16:45:43.114Z,1548.00
2023-05-17T16:46:48.182Z,1528.00
2023-05-17T16:47:43.279Z,1616.00
2023-05-17T16:48:43.156Z,1644.00
2023-05-17T16:49:43.047Z,1656.00
2023-05-17T16:50:43.047Z,1656.00
2023-05-17T16:51:43.027Z,1604.00
2023-05-17T16:52:43.018Z,1592.00
2023-05-17T16:53:43.006Z,1548.00
2023-05-17T16:54:43.020Z,1448.00
2023-05-17T16:55:43.011Z,1384.00
2023-05-17T16:56:42.974Z,1324.00
2023-05-17T16:57:47.998Z,1288.00
2023-05-17T16:58:42.961Z,1272.00
2023-05-17T16:59:42.931Z,1224.00
2023-05-17T17:00:42.953Z,1228.00
2023-05-17T17:01:42.987Z,1216.00
2023-05-17T17:02:42.930Z,1208.00
2023-05-17T17:03:43.271Z,1208.00
2023-05-17T17:04:42.897Z,1200.00
2023-05-17T17:05:42.894Z,1268.00
2023-05-17T17:06:42.878Z,1192.00